Time;durP1;ratioP1;P1;durP2;ratioP2;P2;SDS_P1;SDS_P2;PMS_P1;PMS_P2;Temp;Humidity;BMP_temperature;BMP_pressure;BME280_temperature;BME280_humidity;BME280_pressure;Samples;Min_cycle;Max_cycle;Signal;HPM_P1;HPM_P2
2023/06/25 00:00:10;;;;;;;20.40;14.00;;;;;;;21.25;100.00;102151.19;4997889;28;20457;-60
2023/06/25 00:02:36;;;;;;;15.50;12.32;;;;;;;21.27;100.00;102154.63;5011417;28;20033;-60
2023/06/25 00:05:01;;;;;;;17.88;12.77;;;;;;;21.25;100.00;102146.66;5010595;28;20029;-60
2023/06/25 00:07:27;;;;;;;22.52;14.20;;;;;;;21.23;100.00;102148.59;4993410;28;20057;-60
2023/06/25 00:09:55;;;;;;;20.33;13.65;;;;;;;21.21;100.00;102142.44;5010491;28;20026;-60
2023/06/25 00:12:21;;;;;;;;;;;;;;;21.19;100.00;102137.19;5011157;28;20084;-61
2023/06/25 00:14:46;;;;;;;18.58;12.27;;;;;;;21.16;100.00;102132.00;5012139;28;19956;-60
2023/06/25 00:17:17;;;;;;;17.63;13.10;;;;;;;21.15;100.00;102129.41;5039660;28;20091;-61
2023/06/25 00:19:43;;;;;;;17.05;12.82;;;;;;;21.13;100.00;102125.97;5049821;28;20017;-62
2023/06/25 00:22:11;;;;;;;22.48;13.00;;;;;;;21.15;100.00;102124.91;5049471;28;20029;-63
2023/06/25 00:24:39;;;;;;;17.52;12.38;;;;;;;21.10;100.00;102115.44;5032112;28;20091;-62
2023/06/25 00:27:06;;;;;;;16.85;12.00;;;;;;;21.09;100.00;102114.56;5030879;28;20026;-61
2023/06/25 00:29:32;;;;;;;20.15;14.13;;;;;;;21.05;100.00;102118.38;5030905;28;20390;-61
2023/06/25 00:31:58;;;;;;;19.77;12.90;;;;;;;21.03;100.00;102117.59;5029888;28;20028;-62
2023/06/25 00:34:23;;;;;;;17.65;12.45;;;;;;;21.13;100.00;102112.56;5031246;28;20026;-60
2023/06/25 00:36:52;;;;;;;19.88;12.75;;;;;;;21.11;100.00;102111.78;5019334;28;20034;-60
2023/06/25 00:39:20;;;;;;;17.88;12.80;;;;;;;21.06;100.00;102112.94;5010370;28;20125;-62
2023/06/25 00:41:47;;;;;;;;;;;;;;;21.04;100.00;102111.28;5011048;28;20021;-60
2023/06/25 00:44:12;;;;;;;20.45;12.70;;;;;;;21.00;100.00;102109.72;5009852;28;19917;-60
2023/06/25 00:46:37;;;;;;;18.45;13.35;;;;;;;20.96;100.00;102106.38;5010922;28;20513;-59
2023/06/25 00:49:05;;;;;;;15.98;12.63;;;;;;;20.93;100.00;102104.75;5010027;28;20037;-60
2023/06/25 00:51:35;;;;;;;18.42;13.57;;;;;;;20.92;100.00;102091.44;5009069;28;20025;-63
2023/06/25 00:54:04;;;;;;;18.98;13.13;;;;;;;20.90;100.00;102087.97;5010971;28;20021;-61
2023/06/25 00:56:30;;;;;;;17.63;12.75;;;;;;;20.90;100.00;102086.19;5034375;28;20700;-61
2023/06/25 00:59:00;;;;;;;18.55;12.48;;;;;;;20.89;100.00;102086.22;5050393;28;20119;-61
2023/06/25 01:01:29;;;;;;;16.98;13.75;;;;;;;20.88;100.00;102085.34;5032839;28;20048;-61
2023/06/25 01:04:02;;;;;;;17.05;13.63;;;;;;;20.85;100.00;102080.19;5030269;28;20410;-60
2023/06/25 01:06:29;;;;;;;18.80;13.77;;;;;;;20.88;100.00;102082.69;5012224;28;20029;-61
2023/06/25 01:08:56;;;;;;;20.45;13.55;;;;;;;20.86;100.00;102079.22;5016038;28;20030;-61
2023/06/25 01:11:22;;;;;;;22.42;15.68;;;;;;;20.85;100.00;102080.19;5010960;28;20022;-61
2023/06/25 01:13:48;;;;;;;19.17;15.15;;;;;;;20.82;100.00;102066.97;5010073;28;20017;-61
2023/06/25 01:16:13;;;;;;;20.63;13.85;;;;;;;20.84;100.00;102076.63;5010294;28;20112;-63
2023/06/25 01:18:39;;;;;;;18.30;13.73;;;;;;;20.87;100.00;102069.38;5009898;28;20061;-61
2023/06/25 01:21:07;;;;;;;22.25;14.77;;;;;;;20.86;100.00;102070.34;5009149;28;20032;-62
2023/06/25 01:23:34;;;;;;;20.23;13.77;;;;;;;20.76;100.00;102059.28;5010135;28;20037;-62
2023/06/25 01:25:59;;;;;;;19.52;14.25;;;;;;;20.75;100.00;102061.09;5007787;28;20498;-61
2023/06/25 01:28:25;;;;;;;20.60;14.40;;;;;;;20.73;100.00;102056.78;5010302;28;20073;-62
2023/06/25 01:30:51;;;;;;;17.50;13.70;;;;;;;20.73;100.00;102056.78;5093029;23;20057;-65
2023/06/25 01:33:18;;;;;;;22.83;14.90;;;;;;;20.71;100.00;102054.22;5048232;28;20021;-62
2023/06/25 01:35:43;;;;;;;19.23;14.90;;;;;;;20.67;100.00;102048.16;5031498;28;20029;-61
2023/06/25 01:38:10;;;;;;;18.65;13.85;;;;;;;20.68;100.00;102047.19;5040631;28;20144;-63
2023/06/25 01:40:36;;;;;;;18.45;14.07;;;;;;;20.65;100.00;102044.69;5028817;28;20497;-61
2023/06/25 01:43:01;;;;;;;20.67;14.07;;;;;;;20.65;100.00;102041.19;5028538;28;20102;-64
2023/06/25 01:45:26;;;;;;;17.80;14.15;;;;;;;20.65;100.00;102039.34;5046843;28;20127;-61
2023/06/25 01:47:52;;;;;;;18.13;13.70;;;;;;;20.67;100.00;102036.56;5048758;28;20112;-60
2023/06/25 01:50:17;;;;;;;19.30;13.35;;;;;;;20.62;100.00;102026.13;5030735;28;20054;-60
2023/06/25 01:52:43;;;;;;;20.75;15.07;;;;;;;20.63;100.00;102017.16;5049245;28;20060;-59
2023/06/25 01:55:08;;;;;;;19.98;15.23;;;;;;;20.55;100.00;102017.59;5047619;28;20035;-60
2023/06/25 01:57:34;;;;;;;20.60;15.05;;;;;;;20.55;100.00;102016.72;5048513;28;20028;-60
2023/06/25 01:59:59;;;;;;;22.02;14.73;;;;;;;20.60;100.00;102021.81;5048578;28;20029;-60
2023/06/25 02:02:24;;;;;;;24.20;15.68;;;;;;;20.59;100.00;102015.63;5048213;28;20024;-61
2023/06/25 02:04:50;;;;;;;21.85;15.48;;;;;;;20.52;100.00;102017.78;5047750;28;20499;-60
2023/06/25 02:07:15;;;;;;;21.42;15.88;;;;;;;20.44;100.00;102010.19;5029973;28;20020;-60
2023/06/25 02:09:40;;;;;;;25.38;16.77;;;;;;;20.42;100.00;102012.09;5048168;28;20020;-61
2023/06/25 02:12:06;;;;;;;22.65;15.23;;;;;;;20.40;100.00;102014.00;5048205;28;20029;-62
2023/06/25 02:14:32;;;;;;;23.23;16.10;;;;;;;20.41;100.00;102007.69;5037107;28;20491;-61
2023/06/25 02:16:58;;;;;;;22.25;15.38;;;;;;;20.39;100.00;101998.88;5028562;28;20120;-62
2023/06/25 02:19:23;;;;;;;25.08;15.77;;;;;;;20.35;100.00;101994.69;5027570;28;20124;-62
2023/06/25 02:21:48;;;;;;;24.25;15.98;;;;;;;20.32;100.00;101994.84;5028686;28;20033;-63
2023/06/25 02:24:14;;;;;;;21.38;15.68;;;;;;;20.29;100.00;101990.50;5032196;28;20029;-61
2023/06/25 02:26:40;;;;;;;23.60;16.35;;;;;;;20.24;100.00;101994.41;5048635;28;20651;-65
2023/06/25 02:29:06;;;;;;;23.92;15.75;;;;;;;20.16;100.00;101993.03;5047845;28;20100;-60
2023/06/25 02:31:31;;;;;;;23.27;16.65;;;;;;;20.15;100.00;101991.31;5047089;28;20137;-62
2023/06/25 02:33:56;;;;;;;23.95;16.98;;;;;;;20.10;100.00;101987.19;5047115;28;20139;-61
2023/06/25 02:36:22;;;;;;;23.35;16.15;;;;;;;20.08;100.00;101992.63;5048491;28;20476;-61
2023/06/25 02:38:47;;;;;;;21.02;15.77;;;;;;;20.07;100.00;101989.06;5030037;28;20493;-62
2023/06/25 02:41:13;;;;;;;24.23;16.88;;;;;;;20.02;100.00;101983.09;5047614;28;20150;-64
2023/06/25 02:43:38;;;;;;;26.17;15.95;;;;;;;20.03;100.00;101986.66;5047443;28;20521;-61
2023/06/25 02:46:03;;;;;;;28.52;16.13;;;;;;;20.02;100.00;101977.75;5047980;28;20025;-61
2023/06/25 02:48:29;;;;;;;26.30;17.08;;;;;;;19.97;100.00;101981.59;5047333;28;20025;-59
2023/06/25 02:50:54;;;;;;;25.05;16.75;;;;;;;19.93;100.00;101971.06;5048336;28;20517;-60
2023/06/25 02:53:19;;;;;;;23.42;16.70;;;;;;;19.97;100.00;101962.88;5048134;28;20495;-60
2023/06/25 02:55:45;;;;;;;22.15;15.93;;;;;;;19.93;100.00;101968.41;5047208;28;20029;-59
2023/06/25 02:58:10;;;;;;;21.90;16.02;;;;;;;19.87;100.00;101966.06;5047690;28;20037;-60
2023/06/25 03:00:35;;;;;;;23.40;15.52;;;;;;;19.86;100.00;101964.34;5042346;28;20109;-61
2023/06/25 03:03:01;;;;;;;30.35;18.08;;;;;;;19.79;100.00;101969.19;5034985;28;20485;-60
2023/06/25 03:05:26;;;;;;;24.52;16.63;;;;;;;19.81;100.00;101969.09;5047347;28;20048;-60
2023/06/25 03:07:59;;;;;;;27.15;16.45;;;;;;;19.82;100.00;101970.81;5047239;28;20148;-62
2023/06/25 03:10:28;;;;;;;20.33;14.57;;;;;;;19.82;100.00;101973.50;5046435;28;20086;-60
2023/06/25 03:12:53;;;;;;;27.23;17.00;;;;;;;19.77;100.00;101973.75;5046906;28;20021;-63
2023/06/25 03:15:18;;;;;;;25.73;16.88;;;;;;;19.73;100.00;101966.84;5030754;28;20040;-64
2023/06/25 03:17:44;;;;;;;24.48;15.73;;;;;;;19.76;100.00;101972.03;5027312;28;20490;-63
2023/06/25 03:20:10;;;;;;;27.13;16.83;;;;;;;19.82;100.00;101965.47;5026874;28;20114;-61
2023/06/25 03:22:36;;;;;;;28.10;17.02;;;;;;;19.78;100.00;101963.91;5027230;28;20057;-60
2023/06/25 03:25:02;;;;;;;26.35;16.60;;;;;;;19.72;100.00;101962.44;5038911;28;20078;-62
2023/06/25 03:27:28;;;;;;;22.02;15.57;;;;;;;19.73;100.00;101957.94;5047843;28;20074;-63
2023/06/25 03:29:53;;;;;;;25.05;15.68;;;;;;;19.72;100.00;101956.22;5036367;28;20443;-61
2023/06/25 03:32:19;;;;;;;24.90;16.25;;;;;;;19.73;100.00;101950.81;5027919;28;20026;-60
2023/06/25 03:34:44;;;;;;;23.60;15.35;;;;;;;19.74;100.00;101965.03;5026895;28;20033;-60
2023/06/25 03:37:09;;;;;;;23.08;15.15;;;;;;;19.77;100.00;101963.03;5027706;28;21374;-61
2023/06/25 03:39:35;;;;;;;22.38;15.27;;;;;;;19.84;100.00;101958.22;5032952;28;20025;-60
2023/06/25 03:42:00;;;;;;;23.45;16.15;;;;;;;19.81;100.00;101958.41;5047304;28;20044;-61
2023/06/25 03:44:26;;;;;;;21.15;14.63;;;;;;;19.86;100.00;101952.81;5046408;28;20583;-60
2023/06/25 03:46:51;;;;;;;22.67;15.23;;;;;;;19.91;100.00;101953.38;5029295;28;20029;-64
2023/06/25 03:49:16;;;;;;;23.70;15.45;;;;;;;19.92;100.00;101947.97;5045996;28;20025;-61
2023/06/25 03:51:42;;;;;;;25.52;15.30;;;;;;;19.97;100.00;101944.16;5027936;28;20484;-61
2023/06/25 03:54:07;;;;;;;23.15;15.98;;;;;;;20.03;100.00;101935.81;5026197;28;20096;-60
2023/06/25 03:56:32;;;;;;;24.60;15.93;;;;;;;20.12;100.00;101943.31;5039759;28;20116;-60
2023/06/25 03:58:58;;;;;;;23.83;14.65;;;;;;;20.23;100.00;101941.84;5046734;28;20068;-61
2023/06/25 04:01:23;;;;;;;27.63;15.90;;;;;;;20.31;100.00;101955.63;5046472;28;20120;-63
2023/06/25 04:03:48;;;;;;;22.38;13.40;;;;;;;20.44;100.00;101943.25;5046819;28;20053;-63
2023/06/25 04:06:14;;;;;;;20.02;14.07;;;;;;;20.58;100.00;101946.94;5045297;28;20045;-63
2023/06/25 04:08:40;;;;;;;19.77;13.52;;;;;;;20.63;100.00;101950.22;5045330;28;20060;-63
2023/06/25 04:11:05;;;;;;;17.90;13.15;;;;;;;20.62;100.00;101945.81;5034540;28;20053;-62
2023/06/25 04:13:31;;;;;;;20.63;13.77;;;;;;;20.65;100.00;101948.28;5027029;28;20101;-62
2023/06/25 04:15:56;;;;;;;22.70;14.55;;;;;;;20.71;100.00;101942.59;5041790;28;20473;-62
2023/06/25 04:18:21;;;;;;;24.15;14.20;;;;;;;20.73;100.00;101942.50;5051360;28;20033;-63
2023/06/25 04:20:47;;;;;;;16.83;12.57;;;;;;;20.78;100.00;101937.75;5047166;28;20104;-63
2023/06/25 04:23:12;;;;;;;20.60;13.38;;;;;;;20.87;100.00;101938.13;5046887;28;20036;-62
2023/06/25 04:25:38;;;;;;;18.85;12.60;;;;;;;20.94;100.00;101942.19;5028742;28;20479;-63
2023/06/25 04:28:03;;;;;;;19.40;13.68;;;;;;;20.89;100.00;101947.78;5047293;28;20017;-62
2023/06/25 04:30:28;;;;;;;22.08;12.90;;;;;;;20.88;100.00;101940.72;5050172;28;20484;-63
2023/06/25 04:32:54;;;;;;;19.20;12.88;;;;;;;20.85;100.00;101943.56;5049566;28;20500;-63
2023/06/25 04:35:20;;;;;;;21.20;14.52;;;;;;;20.82;100.00;101946.44;5041822;28;20029;-64
2023/06/25 04:37:45;;;;;;;19.27;13.50;;;;;;;20.93;100.00;101944.03;5053938;28;20017;-64
2023/06/25 04:40:12;;;;;;;23.17;13.80;;;;;;;20.98;100.00;101942.88;5049476;28;20164;-63
2023/06/25 04:42:37;;;;;;;17.30;12.98;;;;;;;21.07;100.00;101943.16;5032623;28;20544;-63
2023/06/25 04:45:03;;;;;;;20.90;12.82;;;;;;;21.08;100.00;101942.19;5050083;28;20029;-62
2023/06/25 04:47:28;;;;;;;17.45;12.23;;;;;;;21.15;100.00;101941.81;5063520;28;20260;-62
2023/06/25 04:49:53;;;;;;;22.10;12.75;;;;;;;21.20;100.00;101940.56;5032117;28;20017;-63
2023/06/25 04:52:19;;;;;;;18.08;11.23;;;;;;;21.33;100.00;101947.88;5050398;28;20829;-63
2023/06/25 04:54:45;;;;;;;19.17;12.82;;;;;;;21.33;100.00;101934.47;5049900;28;20025;-63
2023/06/25 04:57:10;;;;;;;16.30;11.43;;;;;;;21.42;100.00;101936.56;5050099;28;20037;-64
2023/06/25 04:59:35;;;;;;;16.92;11.55;;;;;;;21.46;100.00;101934.53;5049859;28;20731;-63
2023/06/25 05:02:01;;;;;;;15.98;11.35;;;;;;;21.53;100.00;101935.03;5050226;28;20078;-63
2023/06/25 05:04:26;;;;;;;17.05;12.00;;;;;;;21.57;100.00;101936.56;5049904;28;20487;-63
2023/06/25 05:06:52;;;;;;;13.63;10.98;;;;;;;21.64;100.00;101932.50;5040351;28;20057;-64
2023/06/25 05:09:17;;;;;;;15.63;11.93;;;;;;;21.63;100.00;101928.13;5045524;28;20036;-63
2023/06/25 05:11:42;;;;;;;14.52;10.55;;;;;;;21.67;100.00;101929.63;5048588;28;20061;-63
2023/06/25 05:14:08;;;;;;;18.05;11.20;;;;;;;21.76;100.00;101930.91;5046627;28;20108;-63
2023/06/25 05:16:33;;;;;;;17.50;12.88;;;;;;;21.80;100.00;101934.25;5036559;28;20377;-63
2023/06/25 05:18:58;;;;;;;15.32;11.77;;;;;;;21.84;100.00;101943.81;5040565;28;20499;-69
2023/06/25 05:21:24;;;;;;;17.40;11.93;;;;;;;21.87;100.00;101954.34;5020828;28;20205;-68
2023/06/25 05:24:00;;;;;;;15.23;11.23;;;;;;;22.02;100.00;101943.56;5048710;28;20542;-68
2023/06/25 05:26:27;;;;;;;20.30;13.07;;;;;;;22.07;100.00;101941.47;5046377;28;20070;-68
2023/06/25 05:28:52;;;;;;;15.80;11.70;;;;;;;22.18;100.00;101949.66;5028489;28;20485;-63
2023/06/25 05:31:17;;;;;;;17.42;11.68;;;;;;;22.21;100.00;101935.16;5028978;28;20057;-63
2023/06/25 05:33:43;;;;;;;15.48;10.77;;;;;;;22.28;100.00;101939.19;5048337;28;20029;-63
2023/06/25 05:36:08;;;;;;;16.33;11.23;;;;;;;22.39;100.00;101941.13;5045539;28;20389;-67
2023/06/25 05:38:34;;;;;;;15.60;11.57;;;;;;;22.51;100.00;101934.06;5048093;28;20021;-68
2023/06/25 05:40:59;;;;;;;15.98;11.13;;;;;;;22.53;100.00;101936.66;5047252;28;20025;-64
2023/06/25 05:43:25;;;;;;;15.75;11.70;;;;;;;22.57;100.00;101938.16;5048416;28;20052;-66
2023/06/25 05:45:50;;;;;;;14.90;11.23;;;;;;;22.62;100.00;101929.81;5048474;28;20465;-68
2023/06/25 05:48:15;;;;;;;17.13;11.45;;;;;;;22.66;100.00;101936.72;5027448;28;20033;-61
2023/06/25 05:50:41;;;;;;;12.30;9.27;;;;;;;22.80;100.00;101941.13;5037030;28;20017;-64
2023/06/25 05:53:07;;;;;;;16.08;11.10;;;;;;;22.86;100.00;101938.03;5037431;28;20021;-65
2023/06/25 05:55:33;;;;;;;19.45;11.55;;;;;;;22.92;100.00;101943.00;5033695;28;20025;-68
2023/06/25 05:57:58;;;;;;;14.85;10.32;;;;;;;23.02;100.00;101945.03;5034609;28;20108;-65
2023/06/25 06:00:23;;;;;;;15.50;10.98;;;;;;;23.09;100.00;101938.25;5046657;28;20029;-64
2023/06/25 06:02:49;;;;;;;14.93;11.18;;;;;;;23.17;100.00;101937.69;5041815;28;20350;-65
2023/06/25 06:05:14;;;;;;;12.77;9.70;;;;;;;23.30;100.00;101937.72;5040873;28;20032;-62
2023/06/25 06:07:40;;;;;;;16.30;9.77;;;;;;;23.42;100.00;101942.22;5041033;28;20041;-63
2023/06/25 06:10:06;;;;;;;13.85;9.60;;;;;;;23.50;100.00;101935.47;5046208;28;20028;-65
2023/06/25 06:12:32;;;;;;;13.60;10.07;;;;;;;23.67;100.00;101940.47;5029609;28;20025;-64
2023/06/25 06:14:57;;;;;;;14.63;9.15;;;;;;;23.77;100.00;101934.41;5039682;28;20558;-67
2023/06/25 06:17:22;;;;;;;15.82;9.20;;;;;;;23.88;100.00;101937.19;5026499;28;20105;-65
2023/06/25 06:19:48;;;;;;;13.60;9.73;;;;;;;24.05;100.00;101935.91;5045634;28;20048;-65
2023/06/25 06:22:14;;;;;;;9.82;8.20;;;;;;;24.22;100.00;101933.81;5036770;28;20115;-63
2023/06/25 06:24:40;;;;;;;13.00;9.93;;;;;;;24.25;100.00;101930.03;5025152;28;20029;-65
2023/06/25 06:27:06;;;;;;;12.52;8.45;;;;;;;24.31;100.00;101924.19;5037315;28;20040;-63
2023/06/25 06:29:31;;;;;;;15.48;10.02;;;;;;;24.22;100.00;101928.44;5042294;28;20032;-64
2023/06/25 06:31:57;;;;;;;16.10;8.27;;;;;;;24.25;98.28;101930.91;5026139;28;20045;-63
2023/06/25 06:34:22;;;;;;;11.05;6.90;;;;;;;24.45;98.08;101932.09;5026101;28;20040;-63
2023/06/25 06:36:47;;;;;;;11.60;8.85;;;;;;;24.48;96.78;101931.84;5008534;28;20060;-69
2023/06/25 06:39:15;;;;;;;11.70;8.57;;;;;;;24.55;96.12;101923.28;5025671;28;20616;-68
2023/06/25 06:41:40;;;;;;;10.50;8.10;;;;;;;24.63;95.99;101918.19;5039035;28;20044;-67
2023/06/25 06:44:13;;;;;;;11.35;7.90;;;;;;;24.77;95.45;101916.25;5036515;28;20045;-64
2023/06/25 06:46:39;;;;;;;11.88;8.05;;;;;;;24.82;94.62;101916.75;5041288;28;20090;-68
2023/06/25 06:49:04;;;;;;;12.40;7.88;;;;;;;24.82;94.46;101914.91;5030019;28;20108;-66
2023/06/25 06:51:30;;;;;;;11.57;8.05;;;;;;;24.94;93.88;101910.44;5025712;28;20487;-62
2023/06/25 06:53:55;;;;;;;10.80;6.90;;;;;;;25.02;92.79;101906.25;5040512;28;20021;-63
2023/06/25 06:56:20;;;;;;;11.43;7.85;;;;;;;25.08;92.30;101909.31;5047285;28;20594;-64
2023/06/25 06:58:46;;;;;;;8.55;6.72;;;;;;;25.21;91.51;101911.91;5035866;28;20030;-67
2023/06/25 07:01:11;;;;;;;8.98;7.25;;;;;;;25.39;90.27;101921.31;5010089;28;20025;-68
2023/06/25 07:03:36;;;;;;;11.05;6.75;;;;;;;25.42;89.78;101919.25;5026938;28;20506;-67
2023/06/25 07:06:02;;;;;;;10.60;6.55;;;;;;;25.58;89.05;101918.00;5027687;28;20025;-67
2023/06/25 07:08:27;;;;;;;10.73;8.90;;;;;;;25.52;87.76;101919.34;5032797;28;20116;-68
2023/06/25 07:10:52;;;;;;;8.68;6.38;;;;;;;25.68;87.18;101918.16;5047296;28;20377;-67
2023/06/25 07:13:18;;;;;;;15.02;6.60;;;;;;;25.70;86.72;101910.75;5047056;28;20044;-66
2023/06/25 07:15:43;;;;;;;14.85;7.40;;;;;;;25.87;86.26;101912.09;5029674;28;20017;-66
2023/06/25 07:18:08;;;;;;;9.95;7.47;;;;;;;25.84;86.35;101912.34;5046218;28;20552;-65
2023/06/25 07:20:34;;;;;;;12.05;7.15;;;;;;;25.85;85.60;101905.94;5047706;28;20186;-67
2023/06/25 07:22:59;;;;;;;9.20;5.88;;;;;;;25.99;84.95;101908.38;5046055;28;20040;-66
2023/06/25 07:25:24;;;;;;;9.45;7.25;;;;;;;26.07;84.58;101909.56;5030745;28;20037;-66
2023/06/25 07:27:50;;;;;;;9.88;6.95;;;;;;;26.05;84.72;101912.38;5027675;28;20025;-67
2023/06/25 07:30:15;;;;;;;12.55;7.43;;;;;;;25.99;84.28;101913.78;5026726;28;20096;-65
2023/06/25 07:32:40;;;;;;;12.88;7.07;;;;;;;26.09;84.29;101907.56;5027445;28;20029;-66
2023/06/25 07:35:06;;;;;;;11.20;7.22;;;;;;;26.11;84.18;101908.31;5038077;28;20029;-66
2023/06/25 07:37:32;;;;;;;7.50;5.72;;;;;;;26.21;84.81;101902.97;5047274;28;20220;-65
2023/06/25 07:39:57;;;;;;;8.43;6.95;;;;;;;26.20;82.68;101896.75;5027826;28;20029;-60
2023/06/25 07:42:22;;;;;;;10.93;7.53;;;;;;;26.13;83.25;101895.56;5047602;28;20148;-60
2023/06/25 07:44:48;;;;;;;9.40;7.28;;;;;;;26.10;83.55;101896.66;5046015;28;20032;-62
2023/06/25 07:47:13;;;;;;;13.57;6.70;;;;;;;26.14;84.42;101902.66;5047257;28;20059;-60
2023/06/25 07:49:39;;;;;;;11.85;8.18;;;;;;;26.19;82.73;101891.47;5046287;28;20369;-60
2023/06/25 07:52:04;;;;;;;15.88;7.30;;;;;;;26.21;82.83;101898.44;5046964;28;20053;-62
2023/06/25 07:54:30;;;;;;;8.90;7.10;;;;;;;26.12;83.60;101891.13;5044106;28;20389;-60
2023/06/25 07:56:55;;;;;;;11.52;7.18;;;;;;;26.37;83.32;101886.38;5026658;28;20041;-60
2023/06/25 07:59:20;;;;;;;12.02;6.70;;;;;;;26.42;83.17;101885.97;5025819;28;20411;-64
2023/06/25 08:01:46;;;;;;;12.77;7.32;;;;;;;26.52;82.13;101888.75;5026755;28;20047;-61
2023/06/25 08:04:11;;;;;;;9.23;7.15;;;;;;;26.61;82.67;101887.97;5028136;28;20025;-60
2023/06/25 08:06:36;;;;;;;18.88;8.93;;;;;;;26.62;82.50;101884.25;5039412;28;20701;-60
2023/06/25 08:09:03;;;;;;;8.13;6.88;;;;;;;26.67;82.49;101887.41;5048745;28;20559;-60
2023/06/25 08:11:28;;;;;;;11.40;5.97;;;;;;;26.77;82.88;101882.06;5044279;28;20025;-62
2023/06/25 08:13:54;;;;;;;11.73;7.88;;;;;;;26.88;81.51;101884.69;5029756;28;20036;-60
2023/06/25 08:16:19;;;;;;;8.38;6.63;;;;;;;26.86;80.23;101880.41;5029851;28;20029;-62
2023/06/25 08:18:44;;;;;;;10.25;7.43;;;;;;;26.92;79.37;101879.88;5050308;28;20055;-62
2023/06/25 08:21:10;;;;;;;9.85;5.90;;;;;;;26.95;78.62;101874.19;5048549;28;20083;-61
2023/06/25 08:23:35;;;;;;;7.82;5.75;;;;;;;27.06;76.01;101869.72;5045410;28;20104;-61
2023/06/25 08:26:00;;;;;;;11.77;6.75;;;;;;;27.09;73.84;101872.16;5046829;28;20086;-60
2023/06/25 08:28:26;;;;;;;10.15;6.22;;;;;;;27.06;76.18;101869.72;5047474;28;20036;-61
2023/06/25 08:30:51;;;;;;;8.32;5.95;;;;;;;27.10;77.31;101872.00;5046629;28;20452;-60
2023/06/25 08:33:16;;;;;;;9.18;7.20;;;;;;;27.16;78.42;101865.19;5034362;28;20025;-61
2023/06/25 08:35:42;;;;;;;7.63;6.28;;;;;;;27.28;78.92;101862.38;5027683;28;20144;-60
2023/06/25 08:38:08;;;;;;;9.02;5.82;;;;;;;27.34;78.99;101867.22;5026768;28;20077;-62
2023/06/25 08:40:35;;;;;;;12.27;6.70;;;;;;;27.43;79.93;101860.13;5029506;28;20075;-61
2023/06/25 08:43:01;;;;;;;9.38;5.22;;;;;;;27.41;76.34;101857.56;5028374;28;20025;-59
2023/06/25 08:45:27;;;;;;;6.20;5.30;;;;;;;27.53;74.36;101863.72;5011420;28;20044;-62
2023/06/25 08:47:56;;;;;;;8.43;4.95;;;;;;;27.64;74.08;101849.19;5029424;28;20045;-60
2023/06/25 08:50:22;;;;;;;7.07;6.00;;;;;;;27.65;74.45;101852.78;5031948;28;20043;-59
2023/06/25 08:52:48;;;;;;;8.88;6.15;;;;;;;27.80;73.82;101861.34;5047048;28;20029;-59
2023/06/25 08:55:13;;;;;;;7.03;5.05;;;;;;;27.84;71.12;101846.53;5038385;28;20369;-61
2023/06/25 08:57:39;;;;;;;8.45;5.50;;;;;;;27.85;70.92;101846.41;5048731;28;20029;-62
2023/06/25 09:00:06;;;;;;;6.47;5.25;;;;;;;27.91;71.40;101852.22;5039979;28;20641;-60
2023/06/25 09:02:31;;;;;;;11.25;4.85;;;;;;;27.84;65.36;101847.38;5028293;28;20022;-61
2023/06/25 09:05:08;;;;;;;7.03;4.55;;;;;;;27.95;62.48;101840.97;5032962;28;20029;-62
2023/06/25 09:07:35;;;;;;;9.00;6.07;;;;;;;27.97;63.36;101852.53;5047789;28;20064;-61
2023/06/25 09:10:00;;;;;;;9.88;6.22;;;;;;;27.95;64.72;101848.22;5047026;28;20033;-60
2023/06/25 09:12:26;;;;;;;5.47;4.22;;;;;;;27.95;63.82;101850.94;5047589;28;20029;-59
2023/06/25 09:14:51;;;;;;;5.00;3.85;;;;;;;28.11;62.20;101853.94;5029081;28;20029;-59
2023/06/25 09:17:20;;;;;;;5.50;4.22;;;;;;;28.20;61.95;101843.25;5028290;28;20485;-58
2023/06/25 09:19:46;;;;;;;4.82;4.32;;;;;;;28.12;61.65;101849.38;5027654;28;20029;-60
2023/06/25 09:22:11;;;;;;;5.05;4.10;;;;;;;28.19;61.97;101850.50;5027566;28;20026;-60
2023/06/25 09:24:41;;;;;;;9.93;4.82;;;;;;;28.32;62.16;101843.97;5039716;28;20032;-60
2023/06/25 09:27:07;;;;;;;5.20;4.28;;;;;;;28.29;61.08;101841.50;5047184;28;20013;-61
2023/06/25 09:29:35;;;;;;;4.47;4.07;;;;;;;28.36;61.16;101839.97;5012526;28;20033;-59
2023/06/25 09:32:09;;;;;;;5.63;3.90;;;;;;;28.51;58.70;101835.75;5047716;28;20048;-59
2023/06/25 09:34:34;;;;;;;5.03;3.80;;;;;;;28.61;58.83;101833.03;5016646;28;20030;-60
2023/06/25 09:37:02;;;;;;;7.13;3.72;;;;;;;28.57;59.36;101836.19;5028032;28;20048;-59
2023/06/25 09:39:27;;;;;;;10.27;3.67;;;;;;;28.74;58.40;101835.41;5016823;28;20408;-60
2023/06/25 09:41:53;;;;;;;6.00;4.22;;;;;;;28.72;57.44;101829.25;5028558;28;20040;-60
2023/06/25 09:44:19;;;;;;;6.45;4.35;;;;;;;28.82;58.40;101821.13;5009298;28;20131;-60
2023/06/25 09:46:47;;;;;;;4.10;3.70;;;;;;;28.97;59.11;101826.06;5026336;28;20431;-60
2023/06/25 09:49:13;;;;;;;5.18;3.97;;;;;;;29.09;57.75;101824.00;5028341;28;20103;-59
2023/06/25 09:51:44;;;;;;;4.68;4.13;;;;;;;28.99;57.97;101824.91;5046866;28;20039;-61
2023/06/25 09:54:11;;;;;;;7.00;3.65;;;;;;;29.14;58.55;101822.53;5040970;28;20053;-61
2023/06/25 09:56:38;;;;;;;6.38;3.78;;;;;;;29.18;57.90;101816.81;5009320;28;20053;-60
2023/06/25 09:59:03;;;;;;;6.30;3.50;;;;;;;29.36;57.04;101814.13;5008860;28;20034;-60
2023/06/25 10:01:29;;;;;;;5.80;3.70;;;;;;;29.46;56.27;101809.47;5026752;28;20528;-60
2023/06/25 10:03:54;;;;;;;5.32;3.80;;;;;;;29.47;55.83;101811.16;5026806;28;20497;-59
2023/06/25 10:06:20;;;;;;;4.35;3.70;;;;;;;29.39;53.94;101808.38;5047012;28;20032;-58
2023/06/25 10:08:45;;;;;;;4.10;3.40;;;;;;;29.61;53.75;101806.25;5028282;28;20027;-60
2023/06/25 10:11:14;;;;;;;5.15;3.85;;;;;;;29.38;53.85;101807.53;5046600;28;20036;-61
2023/06/25 10:13:40;;;;;;;6.13;3.55;;;;;;;29.50;54.51;101810.88;5047123;28;20116;-60
2023/06/25 10:16:05;;;;;;;7.50;4.07;;;;;;;29.49;51.97;101802.88;5046218;28;20016;-63
2023/06/25 10:18:39;;;;;;;8.23;3.58;;;;;;;29.72;52.48;101800.59;5041019;28;20043;-61
2023/06/25 10:21:04;;;;;;;3.95;3.38;;;;;;;29.86;51.62;101787.47;5046441;28;20112;-60
2023/06/25 10:23:30;;;;;;;5.18;3.40;;;;;;;29.74;52.30;101795.84;5046017;28;20123;-60
2023/06/25 10:25:57;;;;;;;6.45;3.88;;;;;;;29.93;50.60;101795.81;5046993;28;20100;-60
2023/06/25 10:28:34;;;;;;;5.30;3.22;;;;;;;30.06;49.93;101788.13;5047396;28;20043;-59
2023/06/25 10:31:10;;;;;;;4.65;2.90;;;;;;;30.23;50.49;101780.09;5043593;28;20057;-59
2023/06/25 10:33:37;;;;;;;4.93;3.50;;;;;;;30.45;50.76;101781.41;5026749;28;20056;-58
2023/06/25 10:36:03;;;;;;;4.40;3.28;;;;;;;30.31;48.39;101774.69;5027711;28;20351;-58
2023/06/25 10:38:28;;;;;;;3.20;2.90;;;;;;;30.44;48.98;101774.28;5010479;28;20124;-61
2023/06/25 10:40:55;;;;;;;4.32;3.17;;;;;;;30.50;47.82;101762.78;5026214;28;20064;-60
2023/06/25 10:43:20;;;;;;;6.63;3.20;;;;;;;30.55;49.51;101766.84;5026602;28;20685;-65
2023/06/25 10:45:50;;;;;;;8.57;3.28;;;;;;;30.64;49.56;101763.16;5046556;28;20025;-61
2023/06/25 10:48:15;;;;;;;6.95;3.85;;;;;;;30.52;49.21;101762.59;5047712;28;20037;-64
2023/06/25 10:50:40;;;;;;;3.45;2.95;;;;;;;30.76;51.69;101761.88;5044735;28;20029;-62
2023/06/25 10:53:24;;;;;;;5.43;3.28;;;;;;;30.98;49.67;101766.88;5047157;28;20116;-64
2023/06/25 10:55:51;;;;;;;3.45;2.90;;;;;;;30.99;47.43;101760.41;5047857;28;20029;-64
2023/06/25 10:58:19;;;;;;;5.10;3.30;;;;;;;31.09;46.42;101755.66;5047818;28;20028;-63
2023/06/25 11:00:45;;;;;;;4.22;3.42;;;;;;;31.24;44.78;101750.41;5047324;28;20291;-62
2023/06/25 11:03:10;;;;;;;4.00;3.30;;;;;;;31.42;43.91;101752.16;5047549;28;20028;-63
2023/06/25 11:05:41;;;;;;;5.00;3.40;;;;;;;31.35;45.67;101752.00;5047492;28;20420;-63